This is the latest recevied weather packets stored in our database for station/object CA3SQH-10. If no packets are shown the sender has not sent any weather packets the latest 10 day(s).
| Time | Temp. | Humidity | Pressure | Rain* | Wind** | Luminosity | Snow |
|---|---|---|---|---|---|---|---|
| 1777389670 | 21.11° C | 33% | 940.5 hPa | - | - | - | - |
| 1777388770 | 20.56° C | 35% | 940.5 hPa | - | - | - | - |
| 1777387870 | 20° C | 35% | 940.5 hPa | - | - | - | - |
| 1777386969 | 19.44° C | 37% | 940.6 hPa | - | - | - | - |
| 1777386069 | 18.89° C | 37% | 940.5 hPa | - | - | - | - |
| 1777385169 | 18.33° C | 38% | 940.6 hPa | - | - | - | - |
| 1777384269 | 17.78° C | 39% | 940.7 hPa | - | - | - | - |
| 1777383369 | 17.22° C | 41% | 940.7 hPa | - | - | - | - |
| 1777382468 | 16.67° C | 42% | 940.8 hPa | - | - | - | - |
| 1777381568 | 16.11° C | 45% | 940.8 hPa | - | - | - | - |
| 1777380668 | 15° C | 48% | 940.9 hPa | - | - | - | - |
| 1777379768 | 14.44° C | 49% | 940.9 hPa | - | - | - | - |
| 1777378867 | 13.89° C | 52% | 940.8 hPa | - | - | - | - |
| 1777377967 | 13.33° C | 55% | 940.5 hPa | - | - | - | - |
| 1777377067 | 12.78° C | 56% | 940.4 hPa | - | - | - | - |
| 1777376174 | 12.78° C | 56% | 940.4 hPa | - | - | - | - |
| 1777375273 | 12.78° C | 55% | 940.5 hPa | - | - | - | - |
| 1777374373 | 12.78° C | 56% | 940.4 hPa | - | - | - | - |
| 1777373473 | 12.78° C | 55% | 940.5 hPa | - | - | - | - |
| 1777372573 | 12.78° C | 57% | 940.4 hPa | - | - | - | - |
| 1777371673 | 13.33° C | 54% | 940.5 hPa | - | - | - | - |
| 1777370772 | 13.33° C | 55% | 940.5 hPa | - | - | - | - |
| 1777369872 | 13.89° C | 53% | 940.4 hPa | - | - | - | - |
| 1777368972 | 13.89° C | 51% | 940.5 hPa | - | - | - | - |
| 1777368072 | 13.89° C | 52% | 940.7 hPa | - | - | - | - |
* Rain since midnight (hover to see other rain measurements)
** Current wind speed in m/s (hover to see current wind gust speed)